sensor_id;sensor_type;location;lat;lon;timestamp;pressure;altitude;pressure_sealevel;temperature
42197;BMP280;27866;48.146;17.098;2023-03-03T00:00:34;99802.97;;;7.10
42197;BMP280;27866;48.146;17.098;2023-03-03T00:04:45;99804.44;;;6.99
42197;BMP280;27866;48.146;17.098;2023-03-03T00:08:57;99801.50;;;6.90
42197;BMP280;27866;48.146;17.098;2023-03-03T00:13:21;99806.81;;;6.87
42197;BMP280;27866;48.146;17.098;2023-03-03T00:17:33;99806.22;;;6.82
42197;BMP280;27866;48.146;17.098;2023-03-03T00:21:46;99800.72;;;6.73
42197;BMP280;27866;48.146;17.098;2023-03-03T00:25:58;99801.13;;;6.65
42197;BMP280;27866;48.146;17.098;2023-03-03T00:30:27;99807.34;;;6.62
42197;BMP280;27866;48.146;17.098;2023-03-03T00:34:40;99802.38;;;6.59
42197;BMP280;27866;48.146;17.098;2023-03-03T00:38:51;99794.56;;;6.60
42197;BMP280;27866;48.146;17.098;2023-03-03T00:43:25;99797.06;;;6.62
42197;BMP280;27866;48.146;17.098;2023-03-03T00:47:42;99791.91;;;6.62
42197;BMP280;27866;48.146;17.098;2023-03-03T00:51:54;99798.00;;;6.61
42197;BMP280;27866;48.146;17.098;2023-03-03T00:56:05;99789.34;;;6.62
42197;BMP280;27866;48.146;17.098;2023-03-03T01:00:17;99786.19;;;6.57
42197;BMP280;27866;48.146;17.098;2023-03-03T01:04:29;99780.44;;;6.52
42197;BMP280;27866;48.146;17.098;2023-03-03T01:08:40;99771.22;;;6.48
42197;BMP280;27866;48.146;17.098;2023-03-03T01:12:52;99767.00;;;6.47
42197;BMP280;27866;48.146;17.098;2023-03-03T01:17:04;99774.50;;;6.51
42197;BMP280;27866;48.146;17.098;2023-03-03T01:21:16;99772.81;;;6.51
42197;BMP280;27866;48.146;17.098;2023-03-03T01:25:27;99762.63;;;6.49
42197;BMP280;27866;48.146;17.098;2023-03-03T01:29:39;99761.69;;;6.50
42197;BMP280;27866;48.146;17.098;2023-03-03T01:33:50;99764.66;;;6.43
42197;BMP280;27866;48.146;17.098;2023-03-03T01:38:01;99756.28;;;6.39
42197;BMP280;27866;48.146;17.098;2023-03-03T01:42:13;99753.88;;;6.37
42197;BMP280;27866;48.146;17.098;2023-03-03T01:47:13;99755.84;;;6.32
42197;BMP280;27866;48.146;17.098;2023-03-03T01:51:46;99756.34;;;6.23
42197;BMP280;27866;48.146;17.098;2023-03-03T01:55:59;99753.06;;;6.20
42197;BMP280;27866;48.146;17.098;2023-03-03T02:00:13;99757.53;;;6.16
42197;BMP280;27866;48.146;17.098;2023-03-03T02:04:25;99753.31;;;6.15
42197;BMP280;27866;48.146;17.098;2023-03-03T02:09:09;99756.94;;;6.11
42197;BMP280;27866;48.146;17.098;2023-03-03T02:13:22;99753.00;;;6.05
42197;BMP280;27866;48.146;17.098;2023-03-03T02:17:33;99751.44;;;6.02
42197;BMP280;27866;48.146;17.098;2023-03-03T02:21:44;99746.53;;;5.98
42197;BMP280;27866;48.146;17.098;2023-03-03T02:30:22;99733.16;;;5.92
42197;BMP280;27866;48.146;17.098;2023-03-03T02:34:52;99747.22;;;5.85
42197;BMP280;27866;48.146;17.098;2023-03-03T02:39:26;99744.78;;;5.82
42197;BMP280;27866;48.146;17.098;2023-03-03T02:43:55;99734.59;;;5.80
42197;BMP280;27866;48.146;17.098;2023-03-03T02:48:08;99736.59;;;5.76
42197;BMP280;27866;48.146;17.098;2023-03-03T02:52:19;99730.06;;;5.69
42197;BMP280;27866;48.146;17.098;2023-03-03T02:56:33;99737.84;;;5.67
42197;BMP280;27866;48.146;17.098;2023-03-03T03:00:44;99740.50;;;5.66
42197;BMP280;27866;48.146;17.098;2023-03-03T03:05:00;99737.25;;;5.63
42197;BMP280;27866;48.146;17.098;2023-03-03T03:09:13;99736.50;;;5.61
42197;BMP280;27866;48.146;17.098;2023-03-03T03:13:25;99739.94;;;5.60
42197;BMP280;27866;48.146;17.098;2023-03-03T03:17:38;99735.72;;;5.59
42197;BMP280;27866;48.146;17.098;2023-03-03T03:21:50;99741.66;;;5.59
42197;BMP280;27866;48.146;17.098;2023-03-03T03:26:03;99726.34;;;5.58
42197;BMP280;27866;48.146;17.098;2023-03-03T03:30:14;99727.34;;;5.55
42197;BMP280;27866;48.146;17.098;2023-03-03T03:34:26;99724.81;;;5.54
42197;BMP280;27866;48.146;17.098;2023-03-03T03:38:40;99721.59;;;5.50
42197;BMP280;27866;48.146;17.098;2023-03-03T03:42:54;99723.25;;;5.51
42197;BMP280;27866;48.146;17.098;2023-03-03T03:47:05;99728.53;;;5.49
42197;BMP280;27866;48.146;17.098;2023-03-03T03:51:17;99720.16;;;5.45
42197;BMP280;27866;48.146;17.098;2023-03-03T03:55:29;99715.00;;;5.45
42197;BMP280;27866;48.146;17.098;2023-03-03T03:59:40;99714.84;;;5.48
42197;BMP280;27866;48.146;17.098;2023-03-03T04:03:52;99711.53;;;5.46
42197;BMP280;27866;48.146;17.098;2023-03-03T04:08:07;99710.00;;;5.42
42197;BMP280;27866;48.146;17.098;2023-03-03T04:12:19;99716.91;;;5.42
42197;BMP280;27866;48.146;17.098;2023-03-03T04:16:31;99714.34;;;5.42
42197;BMP280;27866;48.146;17.098;2023-03-03T04:20:42;99722.94;;;5.41
42197;BMP280;27866;48.146;17.098;2023-03-03T04:24:54;99721.41;;;5.37
42197;BMP280;27866;48.146;17.098;2023-03-03T04:29:06;99717.28;;;5.35
42197;BMP280;27866;48.146;17.098;2023-03-03T04:33:17;99715.78;;;5.31
42197;BMP280;27866;48.146;17.098;2023-03-03T04:37:30;99736.44;;;5.28
42197;BMP280;27866;48.146;17.098;2023-03-03T04:41:41;99731.50;;;5.23
42197;BMP280;27866;48.146;17.098;2023-03-03T04:45:53;99738.44;;;5.21
42197;BMP280;27866;48.146;17.098;2023-03-03T04:50:07;99742.53;;;5.25
42197;BMP280;27866;48.146;17.098;2023-03-03T04:54:19;99741.00;;;5.21
42197;BMP280;27866;48.146;17.098;2023-03-03T04:58:31;99745.47;;;5.18
42197;BMP280;27866;48.146;17.098;2023-03-03T05:02:42;99743.06;;;5.15
42197;BMP280;27866;48.146;17.098;2023-03-03T05:06:54;99733.75;;;5.13
42197;BMP280;27866;48.146;17.098;2023-03-03T05:11:08;99733.16;;;5.08
42197;BMP280;27866;48.146;17.098;2023-03-03T05:15:20;99724.84;;;5.03
42197;BMP280;27866;48.146;17.098;2023-03-03T05:19:31;99725.00;;;5.00
42197;BMP280;27866;48.146;17.098;2023-03-03T05:23:44;99725.97;;;4.98
42197;BMP280;27866;48.146;17.098;2023-03-03T05:27:56;99738.72;;;4.99
42197;BMP280;27866;48.146;17.098;2023-03-03T05:32:07;99738.72;;;4.99
42197;BMP280;27866;48.146;17.098;2023-03-03T05:36:19;99732.63;;;5.02
42197;BMP280;27866;48.146;17.098;2023-03-03T05:40:30;99750.50;;;5.03
42197;BMP280;27866;48.146;17.098;2023-03-03T05:44:41;99756.09;;;5.11
42197;BMP280;27866;48.146;17.098;2023-03-03T05:48:52;99756.50;;;5.20
42197;BMP280;27866;48.146;17.098;2023-03-03T05:53:04;99753.16;;;5.36
42197;BMP280;27866;48.146;17.098;2023-03-03T05:57:15;99752.59;;;6.90
42197;BMP280;27866;48.146;17.098;2023-03-03T06:01:26;99748.56;;;8.57
42197;BMP280;27866;48.146;17.098;2023-03-03T06:05:39;99761.00;;;9.82
42197;BMP280;27866;48.146;17.098;2023-03-03T06:09:51;99760.34;;;10.40
42197;BMP280;27866;48.146;17.098;2023-03-03T06:14:02;99760.00;;;9.19
42197;BMP280;27866;48.146;17.098;2023-03-03T06:18:14;99769.16;;;8.16
42197;BMP280;27866;48.146;17.098;2023-03-03T06:22:25;99753.72;;;10.24
42197;BMP280;27866;48.146;17.098;2023-03-03T06:26:36;99759.50;;;10.76
42197;BMP280;27866;48.146;17.098;2023-03-03T06:30:48;99750.16;;;12.87
42197;BMP280;27866;48.146;17.098;2023-03-03T06:35:03;99759.28;;;13.55
42197;BMP280;27866;48.146;17.098;2023-03-03T06:39:14;99759.53;;;14.92
42197;BMP280;27866;48.146;17.098;2023-03-03T06:43:25;99762.75;;;15.52
42197;BMP280;27866;48.146;17.098;2023-03-03T06:47:37;99756.75;;;16.16
42197;BMP280;27866;48.146;17.098;2023-03-03T06:51:48;99741.47;;;15.84
42197;BMP280;27866;48.146;17.098;2023-03-03T06:55:59;99755.91;;;12.04
42197;BMP280;27866;48.146;17.098;2023-03-03T07:00:26;99767.53;;;13.70
42197;BMP280;27866;48.146;17.098;2023-03-03T07:04:38;99756.19;;;17.03
42197;BMP280;27866;48.146;17.098;2023-03-03T07:08:51;99759.38;;;18.85
42197;BMP280;27866;48.146;17.098;2023-03-03T07:17:26;99747.41;;;16.41
42197;BMP280;27866;48.146;17.098;2023-03-03T07:21:37;99766.50;;;13.51
42197;BMP280;27866;48.146;17.098;2023-03-03T07:25:50;99792.47;;;12.78
42197;BMP280;27866;48.146;17.098;2023-03-03T07:30:24;99777.22;;;16.66
42197;BMP280;27866;48.146;17.098;2023-03-03T07:34:43;99780.34;;;13.73
42197;BMP280;27866;48.146;17.098;2023-03-03T07:48:35;99796.91;;;16.42
42197;BMP280;27866;48.146;17.098;2023-03-03T07:52:58;99810.31;;;14.77
42197;BMP280;27866;48.146;17.098;2023-03-03T07:57:25;99809.63;;;14.95
42197;BMP280;27866;48.146;17.098;2023-03-03T08:01:43;99817.56;;;15.61
42197;BMP280;27866;48.146;17.098;2023-03-03T08:05:56;99800.69;;;15.65
42197;BMP280;27866;48.146;17.098;2023-03-03T08:10:48;99802.13;;;14.42
42197;BMP280;27866;48.146;17.098;2023-03-03T08:15:24;99809.06;;;14.92
42197;BMP280;27866;48.146;17.098;2023-03-03T08:19:35;99809.06;;;14.72
42197;BMP280;27866;48.146;17.098;2023-03-03T08:23:47;99803.72;;;14.54
42197;BMP280;27866;48.146;17.098;2023-03-03T08:28:04;99796.53;;;14.07
42197;BMP280;27866;48.146;17.098;2023-03-03T08:32:15;99786.88;;;16.10
42197;BMP280;27866;48.146;17.098;2023-03-03T08:36:26;99785.72;;;16.59
42197;BMP280;27866;48.146;17.098;2023-03-03T08:40:38;99807.09;;;15.99
42197;BMP280;27866;48.146;17.098;2023-03-03T08:44:49;99807.41;;;17.93
42197;BMP280;27866;48.146;17.098;2023-03-03T08:49:01;99804.13;;;20.44
42197;BMP280;27866;48.146;17.098;2023-03-03T08:53:14;99797.44;;;22.07
42197;BMP280;27866;48.146;17.098;2023-03-03T08:57:25;99788.28;;;23.60
42197;BMP280;27866;48.146;17.098;2023-03-03T09:01:36;99788.88;;;21.83
42197;BMP280;27866;48.146;17.098;2023-03-03T09:05:48;99813.00;;;23.53
42197;BMP280;27866;48.146;17.098;2023-03-03T09:09:59;99799.88;;;23.45
42197;BMP280;27866;48.146;17.098;2023-03-03T09:14:13;99802.06;;;22.78
42197;BMP280;27866;48.146;17.098;2023-03-03T09:18:35;99795.53;;;24.35
42197;BMP280;27866;48.146;17.098;2023-03-03T09:22:47;99799.41;;;25.92
42197;BMP280;27866;48.146;17.098;2023-03-03T09:27:00;99801.97;;;24.67
42197;BMP280;27866;48.146;17.098;2023-03-03T09:31:24;99807.19;;;24.06
42197;BMP280;27866;48.146;17.098;2023-03-03T09:35:38;99806.34;;;24.39
42197;BMP280;27866;48.146;17.098;2023-03-03T09:39:54;99799.19;;;25.54
42197;BMP280;27866;48.146;17.098;2023-03-03T09:48:51;99792.41;;;24.11
42197;BMP280;27866;48.146;17.098;2023-03-03T10:19:40;99814.91;;;13.32
42197;BMP280;27866;48.146;17.098;2023-03-03T10:33:09;99787.25;;;12.89
42197;BMP280;27866;48.146;17.098;2023-03-03T10:38:01;99785.84;;;13.06
42197;BMP280;27866;48.146;17.098;2023-03-03T10:42:56;99773.31;;;13.11
42197;BMP280;27866;48.146;17.098;2023-03-03T10:57:02;99765.28;;;12.93
42197;BMP280;27866;48.146;17.098;2023-03-03T11:01:44;99763.78;;;12.69
42197;BMP280;27866;48.146;17.098;2023-03-03T11:10:57;99785.34;;;12.70
42197;BMP280;27866;48.146;17.098;2023-03-03T11:20:32;99809.06;;;15.21
42197;BMP280;27866;48.146;17.098;2023-03-03T11:47:38;99755.88;;;27.20
42197;BMP280;27866;48.146;17.098;2023-03-03T11:52:27;99749.25;;;27.54
42197;BMP280;27866;48.146;17.098;2023-03-03T11:56:43;99739.03;;;30.00
42197;BMP280;27866;48.146;17.098;2023-03-03T12:05:47;99711.47;;;29.89
42197;BMP280;27866;48.146;17.098;2023-03-03T12:10:54;99703.56;;;30.62
42197;BMP280;27866;48.146;17.098;2023-03-03T12:19:53;99684.50;;;31.58
42197;BMP280;27866;48.146;17.098;2023-03-03T12:29:06;99679.22;;;30.81
42197;BMP280;27866;48.146;17.098;2023-03-03T12:48:41;99672.13;;;30.24
42197;BMP280;27866;48.146;17.098;2023-03-03T12:53:56;99682.50;;;30.43
42197;BMP280;27866;48.146;17.098;2023-03-03T12:57:42;99672.28;;;30.11
42197;BMP280;27866;48.146;17.098;2023-03-03T13:02:02;99667.69;;;29.90
42197;BMP280;27866;48.146;17.098;2023-03-03T13:06:31;99655.75;;;29.64
42197;BMP280;27866;48.146;17.098;2023-03-03T13:10:53;99651.56;;;30.24
42197;BMP280;27866;48.146;17.098;2023-03-03T13:30:22;99639.03;;;29.50
42197;BMP280;27866;48.146;17.098;2023-03-03T13:34:54;99635.56;;;29.33
42197;BMP280;27866;48.146;17.098;2023-03-03T13:39:51;99627.28;;;29.23
42197;BMP280;27866;48.146;17.098;2023-03-03T13:58:49;99631.53;;;28.24
42197;BMP280;27866;48.146;17.098;2023-03-03T14:03:34;99619.50;;;27.49
42197;BMP280;27866;48.146;17.098;2023-03-03T14:26:12;99616.69;;;27.45
42197;BMP280;27866;48.146;17.098;2023-03-03T14:30:29;99622.59;;;27.40
42197;BMP280;27866;48.146;17.098;2023-03-03T14:34:41;99609.91;;;26.87
42197;BMP280;27866;48.146;17.098;2023-03-03T14:38:52;99621.78;;;26.09
42197;BMP280;27866;48.146;17.098;2023-03-03T14:43:32;99619.41;;;25.43
42197;BMP280;27866;48.146;17.098;2023-03-03T14:47:45;99617.78;;;25.49
42197;BMP280;27866;48.146;17.098;2023-03-03T14:56:33;99622.84;;;24.59
42197;BMP280;27866;48.146;17.098;2023-03-03T15:00:44;99622.56;;;24.28
42197;BMP280;27866;48.146;17.098;2023-03-03T15:05:17;99633.22;;;23.87
42197;BMP280;27866;48.146;17.098;2023-03-03T15:09:47;99631.41;;;22.77
42197;BMP280;27866;48.146;17.098;2023-03-03T15:14:35;99626.69;;;21.87
42197;BMP280;27866;48.146;17.098;2023-03-03T15:38:04;99634.38;;;14.92
42197;BMP280;27866;48.146;17.098;2023-03-03T15:42:48;99642.50;;;14.60
42197;BMP280;27866;48.146;17.098;2023-03-03T15:51:56;99640.16;;;14.08
42197;BMP280;27866;48.146;17.098;2023-03-03T16:01:40;99643.81;;;13.66
42197;BMP280;27866;48.146;17.098;2023-03-03T16:06:02;99646.97;;;13.50
42197;BMP280;27866;48.146;17.098;2023-03-03T16:10:37;99646.56;;;13.34
42197;BMP280;27866;48.146;17.098;2023-03-03T16:15:37;99654.91;;;13.18
42197;BMP280;27866;48.146;17.098;2023-03-03T16:20:14;99661.00;;;12.97
42197;BMP280;27866;48.146;17.098;2023-03-03T16:29:34;99668.19;;;12.51
42197;BMP280;27866;48.146;17.098;2023-03-03T16:34:24;99666.31;;;12.21
42197;BMP280;27866;48.146;17.098;2023-03-03T16:38:42;99668.38;;;11.95
42197;BMP280;27866;48.146;17.098;2023-03-03T16:48:25;99679.00;;;11.59
42197;BMP280;27866;48.146;17.098;2023-03-03T16:52:53;99686.84;;;11.47
42197;BMP280;27866;48.146;17.098;2023-03-03T17:06:56;99710.41;;;11.09
42197;BMP280;27866;48.146;17.098;2023-03-03T17:12:20;99715.00;;;10.94
42197;BMP280;27866;48.146;17.098;2023-03-03T17:21:31;99732.16;;;10.72
42197;BMP280;27866;48.146;17.098;2023-03-03T17:26:02;99727.94;;;10.59
42197;BMP280;27866;48.146;17.098;2023-03-03T17:39:58;99730.09;;;10.53
42197;BMP280;27866;48.146;17.098;2023-03-03T18:27:42;99756.84;;;9.54
42197;BMP280;27866;48.146;17.098;2023-03-03T18:36:36;99758.88;;;9.49
42197;BMP280;27866;48.146;17.098;2023-03-03T18:41:17;99754.09;;;9.43
42197;BMP280;27866;48.146;17.098;2023-03-03T18:50:15;99758.63;;;9.27
42197;BMP280;27866;48.146;17.098;2023-03-03T18:54:34;99772.09;;;9.19
42197;BMP280;27866;48.146;17.098;2023-03-03T18:58:50;99769.72;;;9.16
42197;BMP280;27866;48.146;17.098;2023-03-03T19:03:03;99765.47;;;9.01
42197;BMP280;27866;48.146;17.098;2023-03-03T19:07:59;99758.78;;;8.85
42197;BMP280;27866;48.146;17.098;2023-03-03T19:12:16;99759.81;;;8.83
42197;BMP280;27866;48.146;17.098;2023-03-03T19:16:30;99763.13;;;8.85
42197;BMP280;27866;48.146;17.098;2023-03-03T19:20:55;99764.06;;;8.84
42197;BMP280;27866;48.146;17.098;2023-03-03T19:29:49;99769.75;;;8.75
42197;BMP280;27866;48.146;17.098;2023-03-03T20:02:21;99810.66;;;8.27
42197;BMP280;27866;48.146;17.098;2023-03-03T20:16:41;99818.47;;;8.12
42197;BMP280;27866;48.146;17.098;2023-03-03T20:30:27;99833.38;;;7.77
42197;BMP280;27866;48.146;17.098;2023-03-03T20:57:43;99862.59;;;7.18
42197;BMP280;27866;48.146;17.098;2023-03-03T21:02:19;99859.91;;;7.04
42197;BMP280;27866;48.146;17.098;2023-03-03T21:06:38;99855.09;;;6.98
42197;BMP280;27866;48.146;17.098;2023-03-03T21:10:56;99850.50;;;6.88
42197;BMP280;27866;48.146;17.098;2023-03-03T21:15:29;99853.66;;;6.78
42197;BMP280;27866;48.146;17.098;2023-03-03T21:19:40;99850.84;;;6.66
42197;BMP280;27866;48.146;17.098;2023-03-03T21:23:52;99857.16;;;6.61
42197;BMP280;27866;48.146;17.098;2023-03-03T21:32:44;99863.44;;;6.39
42197;BMP280;27866;48.146;17.098;2023-03-03T21:37:03;99856.88;;;6.34
42197;BMP280;27866;48.146;17.098;2023-03-03T21:41:16;99859.00;;;6.26
42197;BMP280;27866;48.146;17.098;2023-03-03T21:45:28;99862.03;;;6.17
42197;BMP280;27866;48.146;17.098;2023-03-03T21:49:44;99867.56;;;6.10
42197;BMP280;27866;48.146;17.098;2023-03-03T21:53:56;99876.31;;;6.06
42197;BMP280;27866;48.146;17.098;2023-03-03T21:58:07;99878.25;;;6.01
42197;BMP280;27866;48.146;17.098;2023-03-03T22:02:19;99884.53;;;5.96
42197;BMP280;27866;48.146;17.098;2023-03-03T22:06:30;99887.59;;;5.86
42197;BMP280;27866;48.146;17.098;2023-03-03T22:10:41;99880.06;;;5.83
42197;BMP280;27866;48.146;17.098;2023-03-03T22:14:53;99896.53;;;5.79
42197;BMP280;27866;48.146;17.098;2023-03-03T22:19:05;99894.31;;;5.72
42197;BMP280;27866;48.146;17.098;2023-03-03T22:23:17;99895.38;;;5.68
42197;BMP280;27866;48.146;17.098;2023-03-03T22:27:28;99899.75;;;5.66
42197;BMP280;27866;48.146;17.098;2023-03-03T22:31:40;99898.22;;;5.62
42197;BMP280;27866;48.146;17.098;2023-03-03T22:35:51;99900.00;;;5.60
42197;BMP280;27866;48.146;17.098;2023-03-03T22:40:03;99915.09;;;5.49
42197;BMP280;27866;48.146;17.098;2023-03-03T22:44:16;99907.00;;;5.39
42197;BMP280;27866;48.146;17.098;2023-03-03T22:48:28;99915.16;;;5.30
42197;BMP280;27866;48.146;17.098;2023-03-03T22:52:40;99907.72;;;5.24
42197;BMP280;27866;48.146;17.098;2023-03-03T22:56:51;99910.69;;;5.16
42197;BMP280;27866;48.146;17.098;2023-03-03T23:01:02;99912.78;;;5.08
42197;BMP280;27866;48.146;17.098;2023-03-03T23:05:15;99914.13;;;4.97
42197;BMP280;27866;48.146;17.098;2023-03-03T23:09:26;99916.22;;;4.89
42197;BMP280;27866;48.146;17.098;2023-03-03T23:13:37;99920.84;;;4.81
42197;BMP280;27866;48.146;17.098;2023-03-03T23:17:48;99918.63;;;4.74
42197;BMP280;27866;48.146;17.098;2023-03-03T23:22:00;99917.84;;;4.72
42197;BMP280;27866;48.146;17.098;2023-03-03T23:26:11;99923.25;;;4.66
42197;BMP280;27866;48.146;17.098;2023-03-03T23:30:23;99911.69;;;4.57
42197;BMP280;27866;48.146;17.098;2023-03-03T23:34:34;99914.72;;;4.47
42197;BMP280;27866;48.146;17.098;2023-03-03T23:38:45;99898.75;;;4.40
42197;BMP280;27866;48.146;17.098;2023-03-03T23:42:56;99904.00;;;4.37
42197;BMP280;27866;48.146;17.098;2023-03-03T23:47:08;99906.91;;;4.30
42197;BMP280;27866;48.146;17.098;2023-03-03T23:51:20;99916.44;;;4.27
42197;BMP280;27866;48.146;17.098;2023-03-03T23:55:32;99909.03;;;4.19
42197;BMP280;27866;48.146;17.098;2023-03-03T23:59:43;99923.84;;;4.13
